createdAt,value
2017-09-22T00:01:37.375Z,10.10
2017-09-22T00:04:03.509Z,10.10
2017-09-22T00:06:29.733Z,10.00
2017-09-22T00:08:55.854Z,10.00
2017-09-22T00:11:22.027Z,10.00
2017-09-22T00:13:48.159Z,9.90
2017-09-22T00:16:14.326Z,10.00
2017-09-22T00:18:40.468Z,9.90
2017-09-22T00:21:06.618Z,10.00
2017-09-22T00:23:33.507Z,9.90
2017-09-22T00:25:59.648Z,9.90
2017-09-22T00:28:25.778Z,9.90
2017-09-22T00:30:51.920Z,9.90
2017-09-22T00:33:18.067Z,9.90
2017-09-22T00:35:44.208Z,9.90
2017-09-22T00:38:11.124Z,9.90
2017-09-22T00:40:37.279Z,9.90
2017-09-22T00:43:03.435Z,10.00
2017-09-22T00:45:29.575Z,10.00
2017-09-22T00:47:55.747Z,9.90
2017-09-22T00:52:57.370Z,9.90
2017-09-22T00:58:08.185Z,9.90
2017-09-22T01:00:34.305Z,9.90
2017-09-22T01:03:00.471Z,9.90
2017-09-22T01:05:26.661Z,9.90
2017-09-22T01:07:52.808Z,9.80
2017-09-22T01:10:18.966Z,9.80
2017-09-22T01:12:45.103Z,9.70
2017-09-22T01:15:11.266Z,9.70
2017-09-22T01:17:37.402Z,9.80
2017-09-22T01:20:03.751Z,9.70
2017-09-22T01:22:29.906Z,9.80
2017-09-22T01:24:56.039Z,9.80
2017-09-22T01:27:22.197Z,9.70
2017-09-22T01:29:51.671Z,9.70
2017-09-22T01:32:17.806Z,9.70
2017-09-22T01:34:47.338Z,9.70
2017-09-22T01:37:14.304Z,9.70
2017-09-22T01:39:40.425Z,9.60
2017-09-22T01:42:06.579Z,9.70
2017-09-22T01:44:32.695Z,9.60
2017-09-22T01:46:58.858Z,9.60
2017-09-22T01:49:24.975Z,9.60
2017-09-22T01:51:51.111Z,9.60
2017-09-22T01:54:17.985Z,9.60
2017-09-22T01:56:44.162Z,9.60
2017-09-22T01:59:10.277Z,9.60
2017-09-22T02:01:36.427Z,9.60
2017-09-22T02:04:02.558Z,9.50
2017-09-22T02:06:28.690Z,9.60
2017-09-22T02:08:54.839Z,9.60
2017-09-22T02:11:21.005Z,9.50
2017-09-22T02:13:51.523Z,9.50
2017-09-22T02:16:18.397Z,9.50
2017-09-22T02:18:44.598Z,9.50
2017-09-22T02:21:10.744Z,9.50
2017-09-22T02:23:36.886Z,9.50
2017-09-22T02:26:03.006Z,9.50
2017-09-22T02:28:30.027Z,9.50
2017-09-22T02:30:56.946Z,9.50
2017-09-22T02:33:23.099Z,9.50
2017-09-22T02:35:49.253Z,9.50
2017-09-22T02:38:15.391Z,9.50
2017-09-22T02:40:42.138Z,9.40
2017-09-22T02:43:08.275Z,9.40
2017-09-22T02:45:35.369Z,9.40
2017-09-22T02:48:01.558Z,9.40
2017-09-22T02:50:27.762Z,9.50
2017-09-22T02:52:53.870Z,9.50
2017-09-22T02:55:20.067Z,9.50
2017-09-22T02:57:46.190Z,9.40
2017-09-22T03:00:12.363Z,9.50
2017-09-22T03:02:38.491Z,9.40
2017-09-22T03:05:04.656Z,9.40
2017-09-22T03:07:30.802Z,9.30
2017-09-22T03:09:57.229Z,9.40
2017-09-22T03:12:23.449Z,9.40
2017-09-22T03:14:49.635Z,9.40
2017-09-22T03:17:15.796Z,9.40
2017-09-22T03:19:41.986Z,9.40
2017-09-22T03:22:08.122Z,9.40
2017-09-22T03:24:34.286Z,9.40
2017-09-22T03:27:00.454Z,9.40
2017-09-22T03:29:26.588Z,9.30
2017-09-22T03:31:52.742Z,9.30
2017-09-22T03:34:18.870Z,9.20
2017-09-22T03:36:45.046Z,9.20
2017-09-22T03:39:11.181Z,9.20
2017-09-22T03:41:37.351Z,9.20
2017-09-22T03:44:05.113Z,9.20
2017-09-22T03:46:31.269Z,9.20
2017-09-22T03:48:57.398Z,9.10
2017-09-22T03:51:23.574Z,9.10
2017-09-22T03:53:49.713Z,9.20
2017-09-22T03:56:15.874Z,9.10
2017-09-22T03:58:42.026Z,9.10
2017-09-22T04:01:08.203Z,9.10
2017-09-22T04:03:34.402Z,9.10
2017-09-22T04:06:01.305Z,9.20
2017-09-22T04:08:27.462Z,9.20
2017-09-22T04:10:53.618Z,9.10
2017-09-22T04:13:19.774Z,9.20
2017-09-22T04:15:45.927Z,9.20
2017-09-22T04:18:12.074Z,9.20
2017-09-22T04:20:38.216Z,9.20
2017-09-22T04:23:04.342Z,9.20
2017-09-22T04:25:30.474Z,9.20
2017-09-22T04:27:56.620Z,9.20
2017-09-22T04:30:22.775Z,9.20
2017-09-22T04:32:48.891Z,9.20
2017-09-22T04:35:15.018Z,9.30
2017-09-22T04:37:41.145Z,9.30
2017-09-22T04:40:07.294Z,9.30
2017-09-22T04:42:34.170Z,9.30
2017-09-22T04:45:00.303Z,9.30
2017-09-22T04:47:26.422Z,9.30
2017-09-22T04:49:52.572Z,9.30
2017-09-22T04:52:18.701Z,9.40
2017-09-22T04:54:44.838Z,9.40
2017-09-22T04:57:10.981Z,9.40
2017-09-22T04:59:37.121Z,9.40
2017-09-22T05:02:03.260Z,9.50
2017-09-22T05:04:29.438Z,9.40
2017-09-22T05:06:55.586Z,9.40
2017-09-22T05:09:21.723Z,9.50
2017-09-22T05:11:47.907Z,9.50
2017-09-22T05:14:14.039Z,9.50
2017-09-22T05:16:40.188Z,9.50
2017-09-22T05:19:07.071Z,9.40
2017-09-22T05:21:33.210Z,9.40
2017-09-22T05:24:00.096Z,9.50
2017-09-22T05:26:26.671Z,9.50
2017-09-22T05:28:52.862Z,9.50
2017-09-22T05:31:19.063Z,9.50
2017-09-22T05:33:45.199Z,9.60
2017-09-22T05:36:11.358Z,9.60
2017-09-22T05:38:37.488Z,9.60
2017-09-22T05:41:03.648Z,9.60
2017-09-22T05:43:47.976Z,9.60
2017-09-22T05:46:14.117Z,9.60
2017-09-22T05:48:40.257Z,9.60
2017-09-22T05:51:06.442Z,9.70
2017-09-22T05:53:32.595Z,9.70
2017-09-22T05:55:58.732Z,9.90
2017-09-22T05:58:25.627Z,10.10
2017-09-22T06:00:52.662Z,10.10
2017-09-22T06:03:18.798Z,10.20
2017-09-22T06:05:44.946Z,10.20
2017-09-22T06:08:11.087Z,10.30
2017-09-22T06:10:37.299Z,10.30
2017-09-22T06:13:03.504Z,10.30
2017-09-22T06:15:29.619Z,10.20
2017-09-22T06:17:55.835Z,10.10
2017-09-22T06:20:22.004Z,10.10
2017-09-22T06:22:48.170Z,10.30
2017-09-22T06:25:14.747Z,10.40
2017-09-22T06:27:40.978Z,10.40
2017-09-22T06:30:07.102Z,10.20
2017-09-22T06:32:33.966Z,10.10
2017-09-22T06:35:00.942Z,10.20
2017-09-22T06:37:27.112Z,10.20
2017-09-22T06:39:53.990Z,10.20
2017-09-22T06:42:20.190Z,10.20
2017-09-22T06:44:46.322Z,10.20
2017-09-22T06:47:12.491Z,10.20
2017-09-22T06:49:39.358Z,10.20
2017-09-22T06:52:05.581Z,10.20
2017-09-22T06:54:31.707Z,10.30
2017-09-22T06:56:57.843Z,10.40
2017-09-22T06:59:24.722Z,10.50
2017-09-22T07:01:50.923Z,10.50
2017-09-22T07:04:17.102Z,10.60
2017-09-22T07:06:44.903Z,10.70
2017-09-22T07:09:11.102Z,10.70
2017-09-22T07:11:37.267Z,10.70
2017-09-22T07:14:03.433Z,10.80
2017-09-22T07:16:29.567Z,10.90
2017-09-22T07:18:55.757Z,10.90
2017-09-22T07:21:21.891Z,11.00
2017-09-22T07:23:48.057Z,11.00
2017-09-22T07:26:14.219Z,11.10
2017-09-22T07:28:40.365Z,11.20
2017-09-22T07:31:07.315Z,11.20
2017-09-22T07:33:33.471Z,11.20
2017-09-22T07:35:59.639Z,11.30
2017-09-22T07:38:25.797Z,11.30
2017-09-22T07:40:51.949Z,11.30
2017-09-22T07:43:18.135Z,11.40
2017-09-22T07:45:44.274Z,11.50
2017-09-22T07:48:10.442Z,11.60
2017-09-22T07:50:37.594Z,11.60
2017-09-22T07:53:04.521Z,11.80
2017-09-22T07:55:31.453Z,11.80
2017-09-22T07:57:58.367Z,12.00
2017-09-22T08:00:24.537Z,12.00
2017-09-22T08:02:50.691Z,12.00
2017-09-22T08:05:16.846Z,12.00
2017-09-22T08:07:42.990Z,12.00
2017-09-22T08:10:09.133Z,12.10
2017-09-22T08:12:35.307Z,12.20
2017-09-22T08:15:01.446Z,12.30
2017-09-22T08:17:27.596Z,12.40
2017-09-22T08:19:54.509Z,12.60
2017-09-22T08:22:20.643Z,12.60
2017-09-22T08:24:46.803Z,12.70
2017-09-22T08:27:13.171Z,12.60
2017-09-22T08:29:39.329Z,12.60
2017-09-22T08:32:05.552Z,12.60
2017-09-22T08:34:31.708Z,12.60
2017-09-22T08:37:04.375Z,12.70
2017-09-22T08:39:30.546Z,12.70
2017-09-22T08:41:56.686Z,12.80
2017-09-22T08:44:23.066Z,12.90
2017-09-22T08:46:49.203Z,13.00
2017-09-22T08:49:15.404Z,13.00
2017-09-22T08:51:41.539Z,13.00
2017-09-22T08:54:08.444Z,13.10
2017-09-22T08:56:34.576Z,13.10
2017-09-22T08:59:01.499Z,13.10
2017-09-22T09:01:28.461Z,13.20
2017-09-22T09:03:54.615Z,13.20
2017-09-22T09:06:20.763Z,13.30
2017-09-22T09:08:46.927Z,13.50
2017-09-22T09:11:13.121Z,13.60
2017-09-22T09:13:39.268Z,13.70
2017-09-22T09:16:05.409Z,13.80
2017-09-22T09:18:32.314Z,14.00
2017-09-22T09:20:58.446Z,13.90
2017-09-22T09:23:25.334Z,14.10
2017-09-22T09:25:51.474Z,14.10
2017-09-22T09:28:17.623Z,14.20
2017-09-22T09:30:43.762Z,14.30
2017-09-22T09:33:09.927Z,14.30
2017-09-22T09:35:36.110Z,14.30
2017-09-22T09:38:02.273Z,14.40
2017-09-22T09:40:28.422Z,14.50
2017-09-22T09:42:54.568Z,14.60
2017-09-22T09:45:21.519Z,14.70
2017-09-22T09:47:47.671Z,14.70
2017-09-22T09:50:13.838Z,14.80
2017-09-22T09:52:39.991Z,14.90
2017-09-22T09:55:06.158Z,14.90
2017-09-22T09:57:32.283Z,15.00
2017-09-22T09:59:58.470Z,15.10
2017-09-22T10:02:25.375Z,15.20
2017-09-22T10:04:51.578Z,15.20
2017-09-22T10:07:17.771Z,15.30
2017-09-22T10:09:43.942Z,15.40
2017-09-22T10:12:10.850Z,15.60
2017-09-22T10:14:37.002Z,15.50
2017-09-22T10:17:03.330Z,15.70
2017-09-22T10:19:29.498Z,15.80
2017-09-22T10:21:55.645Z,15.90
2017-09-22T10:24:21.814Z,15.90
2017-09-22T10:26:47.977Z,16.10
2017-09-22T10:29:14.099Z,16.10
2017-09-22T10:31:40.257Z,16.20
2017-09-22T10:34:07.145Z,16.50
2017-09-22T10:36:33.296Z,16.40
2017-09-22T10:38:59.441Z,16.60
2017-09-22T10:41:25.602Z,16.70
2017-09-22T10:43:51.750Z,16.80
2017-09-22T10:46:18.031Z,16.80
2017-09-22T10:48:44.196Z,16.90
2017-09-22T10:51:10.351Z,17.00
2017-09-22T10:53:36.505Z,17.10
2017-09-22T10:56:02.661Z,17.20
2017-09-22T10:58:28.795Z,17.30
2017-09-22T11:00:54.950Z,17.40
2017-09-22T11:03:21.083Z,17.60
2017-09-22T11:05:47.247Z,17.70
2017-09-22T11:08:14.168Z,17.80
2017-09-22T11:10:40.314Z,17.80
2017-09-22T11:13:06.509Z,17.90
2017-09-22T11:15:33.406Z,18.10
2017-09-22T11:17:59.589Z,18.00
2017-09-22T11:20:25.710Z,18.00
2017-09-22T11:22:51.899Z,18.10
2017-09-22T11:25:18.046Z,18.30
2017-09-22T11:27:44.206Z,18.40
2017-09-22T11:30:10.395Z,18.60
2017-09-22T11:32:37.287Z,18.90
2017-09-22T11:35:03.446Z,18.90
2017-09-22T11:37:30.427Z,19.20
2017-09-22T11:39:56.590Z,19.20
2017-09-22T11:42:22.736Z,19.20
2017-09-22T11:44:48.857Z,19.30
2017-09-22T11:47:15.735Z,19.40
2017-09-22T11:49:42.644Z,19.70
2017-09-22T11:52:08.792Z,19.70
2017-09-22T11:54:34.957Z,20.10
2017-09-22T11:57:01.141Z,20.30
2017-09-22T11:59:27.270Z,20.50
2017-09-22T12:01:53.398Z,20.70
2017-09-22T12:04:19.613Z,20.90
2017-09-22T12:06:45.791Z,21.00
2017-09-22T12:09:11.928Z,21.20
2017-09-22T12:11:38.054Z,21.40
2017-09-22T12:14:04.207Z,21.40
2017-09-22T12:16:30.346Z,21.40
2017-09-22T12:18:56.502Z,21.40
2017-09-22T12:21:22.616Z,21.40
2017-09-22T12:23:49.492Z,21.60
2017-09-22T12:26:15.623Z,21.60
2017-09-22T12:28:41.808Z,21.80
2017-09-22T12:31:08.904Z,21.80
2017-09-22T12:33:35.811Z,21.90
2017-09-22T12:36:01.966Z,21.80
2017-09-22T12:38:28.179Z,21.90
2017-09-22T12:40:54.390Z,21.80
2017-09-22T12:43:20.610Z,21.80
2017-09-22T12:45:46.726Z,21.70
2017-09-22T12:48:12.889Z,21.60
2017-09-22T12:50:39.018Z,21.10
2017-09-22T12:53:05.884Z,21.40
2017-09-22T12:55:32.049Z,21.40
2017-09-22T12:57:58.172Z,21.10
2017-09-22T13:00:25.088Z,20.80
2017-09-22T13:02:51.223Z,20.80
2017-09-22T13:05:18.196Z,20.40
2017-09-22T13:07:44.367Z,20.40
2017-09-22T13:10:10.684Z,20.20
2017-09-22T13:12:36.845Z,20.10
2017-09-22T13:15:03.083Z,20.00
2017-09-22T13:17:29.234Z,19.80
2017-09-22T13:19:55.414Z,19.70
2017-09-22T13:22:22.331Z,19.70
2017-09-22T13:24:48.535Z,19.60
2017-09-22T13:27:14.674Z,19.70
2017-09-22T13:29:41.577Z,19.70
2017-09-22T13:32:07.796Z,19.60
2017-09-22T13:34:34.018Z,19.60
2017-09-22T13:37:00.188Z,19.50
2017-09-22T13:39:26.366Z,19.50
2017-09-22T13:41:53.342Z,19.50
2017-09-22T13:44:19.512Z,19.50
2017-09-22T13:46:45.687Z,19.40
2017-09-22T13:49:11.863Z,19.40
2017-09-22T13:51:38.003Z,19.40
2017-09-22T13:54:04.179Z,19.40
2017-09-22T13:56:30.314Z,19.50
2017-09-22T13:58:56.446Z,19.50
2017-09-22T14:01:22.611Z,19.40
2017-09-22T14:03:48.740Z,19.30
2017-09-22T14:06:14.979Z,19.30
2017-09-22T14:08:41.094Z,19.30
2017-09-22T14:11:07.247Z,19.40
2017-09-22T14:13:34.144Z,19.30
2017-09-22T14:16:00.319Z,19.30
2017-09-22T14:18:28.125Z,19.30
2017-09-22T14:20:59.688Z,19.20
2017-09-22T14:23:26.904Z,19.20
2017-09-22T14:25:53.068Z,19.00
2017-09-22T14:28:19.210Z,19.00
2017-09-22T14:30:45.361Z,19.00
2017-09-22T14:33:11.566Z,19.00
2017-09-22T14:35:37.766Z,19.00
2017-09-22T14:38:03.941Z,18.90
2017-09-22T14:40:30.099Z,18.90
2017-09-22T14:42:56.772Z,18.90
2017-09-22T14:45:29.557Z,18.90
2017-09-22T14:47:56.956Z,18.90
2017-09-22T14:50:23.774Z,18.80
2017-09-22T14:52:49.969Z,18.80
2017-09-22T14:55:16.139Z,18.70
2017-09-22T14:57:42.284Z,18.60
2017-09-22T15:00:09.246Z,18.60
2017-09-22T15:02:35.435Z,18.60
2017-09-22T15:05:01.629Z,18.30
2017-09-22T15:07:27.824Z,18.20
2017-09-22T15:09:53.957Z,18.20
2017-09-22T15:12:20.862Z,18.00
2017-09-22T15:14:47.002Z,18.00
2017-09-22T15:17:13.914Z,18.10
2017-09-22T15:19:50.678Z,18.10
2017-09-22T15:22:17.570Z,18.10
2017-09-22T15:24:43.706Z,18.10
2017-09-22T15:27:09.866Z,18.20
2017-09-22T15:29:35.986Z,18.00
2017-09-22T15:32:02.124Z,17.90
2017-09-22T15:34:28.264Z,17.90
2017-09-22T15:36:55.140Z,17.80
2017-09-22T15:39:21.286Z,17.80
2017-09-22T15:41:47.437Z,17.70
2017-09-22T15:44:13.576Z,17.60
2017-09-22T15:46:39.729Z,17.60
2017-09-22T15:49:05.858Z,17.50
2017-09-22T15:51:32.759Z,17.50
2017-09-22T15:53:58.890Z,17.50
2017-09-22T15:56:25.774Z,17.50
2017-09-22T15:58:51.905Z,17.50
2017-09-22T16:01:18.171Z,17.50
2017-09-22T16:03:45.124Z,17.50
2017-09-22T16:09:14.397Z,17.50
2017-09-22T16:11:40.534Z,17.20
2017-09-22T16:14:06.683Z,17.30
2017-09-22T16:16:32.863Z,17.30
2017-09-22T16:18:59.018Z,17.20
2017-09-22T16:21:25.159Z,17.20
2017-09-22T16:23:51.282Z,17.20
2017-09-22T16:26:17.408Z,17.00
2017-09-22T16:28:43.566Z,17.00
2017-09-22T16:31:09.726Z,16.90
2017-09-22T16:33:35.864Z,16.70
2017-09-22T16:36:02.048Z,16.70
2017-09-22T16:38:28.178Z,16.70
2017-09-22T16:40:54.314Z,16.60
2017-09-22T16:43:20.476Z,16.60
2017-09-22T16:45:46.606Z,16.70
2017-09-22T16:48:12.763Z,16.80
2017-09-22T16:50:38.908Z,16.70
2017-09-22T16:53:05.047Z,16.70
2017-09-22T16:55:31.915Z,16.60
2017-09-22T16:57:58.509Z,16.60
2017-09-22T17:00:24.695Z,16.50
2017-09-22T17:02:50.892Z,16.50
2017-09-22T17:05:17.077Z,16.40
2017-09-22T17:07:44.048Z,16.50
2017-09-22T17:10:10.939Z,16.40
2017-09-22T17:12:37.155Z,16.40
2017-09-22T17:15:03.311Z,16.40
2017-09-22T17:17:29.849Z,16.50
2017-09-22T17:19:56.041Z,16.50
2017-09-22T17:22:22.220Z,16.40
2017-09-22T17:24:48.400Z,16.40
2017-09-22T17:27:14.560Z,16.20
2017-09-22T17:29:40.707Z,16.20
2017-09-22T17:32:07.674Z,16.00
2017-09-22T17:34:33.844Z,16.00
2017-09-22T17:37:00.742Z,15.80
2017-09-22T17:39:26.918Z,15.80
2017-09-22T17:41:53.072Z,15.80
2017-09-22T17:44:19.232Z,15.80
2017-09-22T17:46:45.378Z,15.70
2017-09-22T17:49:11.519Z,15.70
2017-09-22T17:51:37.682Z,15.60
2017-09-22T17:54:03.859Z,15.70
2017-09-22T17:56:30.743Z,15.60
2017-09-22T17:58:57.175Z,15.60
2017-09-22T18:01:23.324Z,15.50
2017-09-22T18:03:50.218Z,15.50
2017-09-22T18:06:16.435Z,15.50
2017-09-22T18:08:42.651Z,15.50
2017-09-22T18:11:08.799Z,15.30
2017-09-22T18:13:34.984Z,15.20
2017-09-22T18:16:01.137Z,15.10
2017-09-22T18:18:27.319Z,14.90
2017-09-22T18:20:53.543Z,15.00
2017-09-22T18:23:20.511Z,14.90
2017-09-22T18:25:46.637Z,14.90
2017-09-22T18:28:12.794Z,14.80
2017-09-22T18:30:39.020Z,14.80
2017-09-22T18:33:05.183Z,14.90
2017-09-22T18:35:31.335Z,14.80
2017-09-22T18:37:58.805Z,14.60
2017-09-22T18:40:24.967Z,14.60
2017-09-22T18:42:51.847Z,14.60
2017-09-22T18:45:18.013Z,14.60
2017-09-22T18:47:44.176Z,14.60
2017-09-22T18:50:10.343Z,14.60
2017-09-22T18:52:36.573Z,14.60
2017-09-22T18:55:02.759Z,14.60
2017-09-22T18:57:28.879Z,14.50
2017-09-22T18:59:55.017Z,14.50
2017-09-22T19:02:21.143Z,14.50
2017-09-22T19:04:48.043Z,14.40
2017-09-22T19:07:14.169Z,14.40
2017-09-22T19:09:40.311Z,14.30
2017-09-22T19:12:07.362Z,14.20
2017-09-22T19:14:34.256Z,14.10
2017-09-22T19:17:01.114Z,13.90
2017-09-22T19:19:27.286Z,13.90
2017-09-22T19:21:53.571Z,13.90
2017-09-22T19:24:19.753Z,14.00
2017-09-22T19:26:50.940Z,14.00
2017-09-22T19:29:17.114Z,13.90
2017-09-22T19:31:43.415Z,13.80
2017-09-22T19:34:09.760Z,13.80
2017-09-22T19:36:36.651Z,13.60
2017-09-22T19:39:02.891Z,13.60
2017-09-22T19:41:29.785Z,13.60
2017-09-22T19:43:56.110Z,13.60
2017-09-22T19:46:22.283Z,13.50
2017-09-22T19:48:48.455Z,13.50
2017-09-22T19:51:14.657Z,13.50
2017-09-22T19:53:41.531Z,13.50
2017-09-22T19:56:07.696Z,13.50
2017-09-22T19:58:33.890Z,13.40
2017-09-22T20:01:00.039Z,13.40
2017-09-22T20:03:26.175Z,13.30
2017-09-22T20:05:52.330Z,13.10
2017-09-22T20:08:28.594Z,13.00
2017-09-22T20:10:54.731Z,13.00
2017-09-22T20:13:20.856Z,13.00
2017-09-22T20:15:46.987Z,12.90
2017-09-22T20:18:13.159Z,12.90
2017-09-22T20:20:39.307Z,13.00
2017-09-22T20:23:05.423Z,13.00
2017-09-22T20:25:31.572Z,12.90
2017-09-22T20:27:58.492Z,12.80
2017-09-22T20:30:25.415Z,12.80
2017-09-22T20:32:51.550Z,12.80
2017-09-22T20:35:17.687Z,12.80
2017-09-22T20:37:43.805Z,12.70
2017-09-22T20:40:09.992Z,12.70
2017-09-22T20:42:36.098Z,12.50
2017-09-22T20:45:02.367Z,12.50
2017-09-22T20:47:28.480Z,12.60
2017-09-22T20:49:54.662Z,12.60
2017-09-22T20:52:20.810Z,12.50
2017-09-22T20:54:46.932Z,12.40
2017-09-22T20:57:13.074Z,12.40
2017-09-22T20:59:39.189Z,12.30
2017-09-22T21:02:05.311Z,12.30
2017-09-22T21:04:31.431Z,12.40
2017-09-22T21:06:57.566Z,12.40
2017-09-22T21:09:23.687Z,12.30
2017-09-22T21:11:49.818Z,12.40
2017-09-22T21:14:16.672Z,12.20
2017-09-22T21:16:42.844Z,12.20
2017-09-22T21:19:08.978Z,12.20
2017-09-22T21:21:35.892Z,12.20
2017-09-22T21:24:02.010Z,12.20
2017-09-22T21:26:28.891Z,12.10
2017-09-22T21:28:55.027Z,12.10
2017-09-22T21:31:21.171Z,12.10
2017-09-22T21:33:48.036Z,12.10
2017-09-22T21:36:14.188Z,12.10
2017-09-22T21:38:40.302Z,12.10
2017-09-22T21:41:06.450Z,12.10
2017-09-22T21:43:32.572Z,12.10
2017-09-22T21:45:58.726Z,12.10
2017-09-22T21:48:24.918Z,12.10
2017-09-22T21:50:51.062Z,12.10
2017-09-22T21:53:17.928Z,12.10
2017-09-22T21:55:44.072Z,12.10
2017-09-22T21:58:10.236Z,12.10
2017-09-22T22:00:36.398Z,12.10
2017-09-22T22:03:08.672Z,12.10
2017-09-22T22:05:34.830Z,12.10
2017-09-22T22:08:00.943Z,12.00
2017-09-22T22:10:27.812Z,11.90
2017-09-22T22:12:53.986Z,11.90
2017-09-22T22:15:20.112Z,11.90
2017-09-22T22:17:47.016Z,11.90
2017-09-22T22:20:13.119Z,11.90
2017-09-22T22:22:39.255Z,11.90
2017-09-22T22:25:05.367Z,12.00
2017-09-22T22:27:31.491Z,12.00
2017-09-22T22:29:57.615Z,12.00
2017-09-22T22:32:23.741Z,12.00
2017-09-22T22:34:49.861Z,11.90
2017-09-22T22:37:16.010Z,11.90
2017-09-22T22:39:42.118Z,11.90
2017-09-22T22:42:08.239Z,11.80
2017-09-22T22:44:34.375Z,11.90
2017-09-22T22:47:00.512Z,11.80
2017-09-22T22:49:26.625Z,11.80
2017-09-22T22:51:52.761Z,11.80
2017-09-22T22:54:18.871Z,11.80
2017-09-22T22:56:45.000Z,11.70
2017-09-22T22:59:11.106Z,11.60
2017-09-22T23:01:37.237Z,11.50
2017-09-22T23:04:03.400Z,11.50
2017-09-22T23:06:30.282Z,11.50
2017-09-22T23:08:56.419Z,11.60
2017-09-22T23:11:22.565Z,11.50
2017-09-22T23:13:49.439Z,11.50
2017-09-22T23:16:15.584Z,11.50
2017-09-22T23:18:41.745Z,11.40
2017-09-22T23:21:07.864Z,11.40
2017-09-22T23:23:34.000Z,11.40
2017-09-22T23:26:00.123Z,11.40
2017-09-22T23:28:26.263Z,11.30
2017-09-22T23:30:53.113Z,11.40
2017-09-22T23:33:19.257Z,11.30
2017-09-22T23:35:45.379Z,11.30
2017-09-22T23:38:11.510Z,11.20
2017-09-22T23:40:38.388Z,11.20
2017-09-22T23:43:04.523Z,11.10
2017-09-22T23:45:30.638Z,11.00
2017-09-22T23:47:57.378Z,11.10
2017-09-22T23:50:23.499Z,11.00
2017-09-22T23:52:49.743Z,10.90
2017-09-22T23:55:15.870Z,10.90
2017-09-22T23:57:42.030Z,11.00
